createdAt,value
2023-04-05T00:03:17.947Z,9.50
2023-04-05T00:07:02.484Z,9.60
2023-04-05T00:10:44.300Z,9.60
2023-04-05T00:14:26.078Z,9.60
2023-04-05T00:18:07.906Z,9.60
2023-04-05T00:21:49.669Z,9.60
2023-04-05T00:25:31.381Z,9.60
2023-04-05T00:29:13.178Z,9.60
2023-04-05T00:32:54.993Z,9.60
2023-04-05T00:36:36.942Z,9.60
2023-04-05T00:40:18.778Z,9.60
2023-04-05T00:44:00.580Z,9.60
2023-04-05T00:47:43.295Z,9.50
2023-04-05T00:51:25.815Z,9.50
2023-04-05T00:55:09.136Z,9.50
2023-04-05T00:58:53.326Z,9.50
2023-04-05T01:02:48.348Z,9.50
2023-04-05T01:06:51.378Z,9.40
2023-04-05T01:10:39.340Z,9.40
2023-04-05T01:14:21.428Z,9.40
2023-04-05T01:18:03.977Z,9.40
2023-04-05T01:22:14.435Z,9.40
2023-04-05T01:26:15.074Z,9.40
2023-04-05T01:30:04.106Z,9.30
2023-04-05T01:33:59.440Z,9.30
2023-04-05T01:37:42.296Z,9.30
2023-04-05T01:41:24.116Z,9.20
2023-04-05T01:45:06.309Z,9.20
2023-04-05T01:48:48.037Z,9.20
2023-04-05T01:52:29.816Z,9.30
2023-04-05T01:56:11.568Z,9.30
2023-04-05T01:59:53.379Z,9.20
2023-04-05T02:03:35.312Z,9.20
2023-04-05T02:07:17.097Z,9.10
2023-04-05T02:10:58.878Z,9.20
2023-04-05T02:14:40.674Z,9.20
2023-04-05T02:18:22.574Z,9.20
2023-04-05T02:22:04.435Z,9.10
2023-04-05T02:25:46.333Z,9.00
2023-04-05T02:29:28.526Z,9.00
2023-04-05T02:33:10.432Z,9.00
2023-04-05T02:36:52.675Z,9.10
2023-04-05T02:40:34.829Z,9.10
2023-04-05T02:44:16.891Z,9.10
2023-04-05T02:47:58.720Z,9.10
2023-04-05T02:51:40.744Z,9.10
2023-04-05T02:55:22.512Z,9.10
2023-04-05T02:59:04.602Z,9.10
2023-04-05T03:02:46.515Z,9.00
2023-04-05T03:06:28.456Z,9.00
2023-04-05T03:10:10.495Z,9.00
2023-04-05T03:13:52.256Z,8.90
2023-04-05T03:17:34.056Z,8.80
2023-04-05T03:21:18.422Z,8.80
2023-04-05T03:25:00.227Z,8.80
2023-04-05T03:28:45.299Z,8.80
2023-04-05T03:32:27.177Z,8.80
2023-04-05T03:36:09.416Z,8.80
2023-04-05T03:39:51.233Z,8.80
2023-04-05T03:43:33.112Z,8.80
2023-04-05T03:47:14.943Z,8.80
2023-04-05T03:50:56.778Z,8.70
2023-04-05T03:54:40.829Z,8.70
2023-04-05T03:58:22.651Z,8.60
2023-04-05T04:02:04.469Z,8.60
2023-04-05T04:05:46.745Z,8.60
2023-04-05T04:09:29.897Z,8.50
2023-04-05T04:13:11.736Z,8.50
2023-04-05T04:16:53.461Z,8.50
2023-04-05T04:20:35.417Z,8.50
2023-04-05T04:24:19.468Z,8.40
2023-04-05T04:28:01.608Z,8.40
2023-04-05T04:31:48.399Z,8.40
2023-04-05T04:35:39.115Z,8.30
2023-04-05T04:39:26.719Z,8.20
2023-04-05T04:43:14.387Z,8.20
2023-04-05T04:46:56.177Z,8.10
2023-04-05T04:50:39.184Z,8.10
2023-04-05T04:54:20.941Z,8.10
2023-04-05T04:58:09.869Z,8.00
2023-04-05T05:01:51.711Z,8.10
2023-04-05T05:05:33.475Z,8.00
2023-04-05T05:09:15.353Z,8.00
2023-04-05T05:12:57.125Z,8.00
2023-04-05T05:16:38.910Z,8.00
2023-04-05T05:20:21.273Z,8.00
2023-04-05T05:24:03.074Z,8.00
2023-04-05T05:27:44.826Z,8.00
2023-04-05T05:31:29.301Z,8.00
2023-04-05T05:35:11.131Z,7.90
2023-04-05T05:38:54.032Z,7.90
2023-04-05T05:42:35.970Z,7.90
2023-04-05T05:46:20.754Z,7.90
2023-04-05T05:50:03.897Z,7.90
2023-04-05T05:53:45.638Z,7.90
2023-04-05T05:57:27.427Z,7.90
2023-04-05T06:01:11.976Z,7.90
2023-04-05T06:04:55.148Z,8.00
2023-04-05T06:08:38.116Z,8.10
2023-04-05T06:12:22.748Z,8.00
2023-04-05T06:16:04.820Z,8.00
2023-04-05T06:19:46.576Z,8.10
2023-04-05T06:23:28.797Z,8.10
2023-04-05T06:27:10.590Z,8.00
2023-04-05T06:30:52.350Z,8.00
2023-04-05T06:34:34.126Z,8.10
2023-04-05T06:38:16.182Z,8.10
2023-04-05T06:41:58.222Z,8.10
2023-04-05T06:45:40.055Z,8.20
2023-04-05T06:49:21.860Z,8.30
2023-04-05T06:53:04.791Z,8.30
2023-04-05T06:56:46.911Z,8.40
2023-04-05T07:00:28.706Z,8.40
2023-04-05T07:04:10.707Z,8.40
2023-04-05T07:07:53.214Z,8.40
2023-04-05T07:11:35.398Z,8.50
2023-04-05T07:15:17.287Z,8.60
2023-04-05T07:18:59.028Z,8.70
2023-04-05T07:22:40.974Z,8.70
2023-04-05T07:26:23.032Z,8.80
2023-04-05T07:30:08.177Z,8.80
2023-04-05T07:33:49.909Z,8.80
2023-04-05T07:37:31.675Z,8.90
2023-04-05T07:41:13.565Z,8.90
2023-04-05T07:44:55.477Z,9.00
2023-04-05T07:48:37.231Z,9.00
2023-04-05T07:52:18.987Z,9.10
2023-04-05T07:56:11.967Z,9.20
2023-04-05T07:59:55.767Z,9.30
2023-04-05T08:03:40.036Z,9.40
2023-04-05T08:07:23.287Z,9.50
2023-04-05T08:11:05.313Z,9.60
2023-04-05T08:14:47.157Z,9.60
2023-04-05T08:18:29.000Z,9.70
2023-04-05T08:22:11.308Z,9.80
2023-04-05T08:25:53.972Z,10.00
2023-04-05T08:29:35.792Z,10.10
2023-04-05T08:33:17.608Z,10.30
2023-04-05T08:37:00.200Z,10.40
2023-04-05T08:40:46.580Z,10.50
2023-04-05T08:44:30.850Z,10.60
2023-04-05T08:48:12.696Z,10.70
2023-04-05T08:51:55.222Z,10.80
2023-04-05T08:55:39.536Z,10.90
2023-04-05T08:59:22.220Z,10.90
2023-04-05T09:03:05.863Z,10.90
2023-04-05T09:06:49.907Z,11.00
2023-04-05T09:10:32.152Z,11.00
2023-04-05T09:14:14.449Z,11.00
2023-04-05T09:17:57.237Z,11.10
2023-04-05T09:21:58.020Z,11.10
2023-04-05T09:25:42.356Z,11.20
2023-04-05T09:29:30.613Z,11.40
2023-04-05T09:33:18.866Z,11.40
2023-04-05T09:37:01.250Z,11.50
2023-04-05T09:40:49.042Z,11.60
2023-04-05T09:45:01.318Z,11.70
2023-04-05T09:48:50.267Z,11.80
2023-04-05T09:52:32.677Z,11.80
2023-04-05T09:56:14.937Z,11.90
2023-04-05T09:59:56.772Z,11.90
2023-04-05T10:03:48.251Z,11.90
2023-04-05T10:07:30.331Z,12.00
2023-04-05T10:11:13.614Z,12.10
2023-04-05T10:14:56.896Z,12.10
2023-04-05T10:18:50.711Z,12.10
2023-04-05T10:22:35.278Z,12.10
2023-04-05T10:26:31.387Z,12.00
2023-04-05T10:30:13.599Z,12.10
2023-04-05T10:34:06.336Z,12.20
2023-04-05T10:38:23.439Z,12.20
2023-04-05T10:42:09.787Z,12.20
2023-04-05T10:45:54.126Z,12.30
2023-04-05T10:49:40.699Z,12.20
2023-04-05T10:53:22.765Z,12.20
2023-04-05T10:57:09.483Z,12.20
2023-04-05T11:00:52.246Z,12.30
2023-04-05T11:04:34.845Z,12.40
2023-04-05T11:08:16.781Z,12.50
2023-04-05T11:11:58.544Z,12.60
2023-04-05T11:15:40.531Z,12.70
2023-04-05T11:19:49.260Z,12.80
2023-04-05T11:23:31.136Z,12.80
2023-04-05T11:27:12.981Z,12.80
2023-04-05T11:31:02.105Z,12.90
2023-04-05T11:34:44.631Z,12.90
2023-04-05T11:38:26.423Z,12.90
2023-04-05T11:42:16.004Z,13.00
2023-04-05T11:45:57.812Z,13.00
2023-04-05T11:49:40.545Z,13.10
2023-04-05T11:53:22.316Z,13.20
2023-04-05T11:57:04.187Z,13.30
2023-04-05T12:00:46.516Z,13.30
2023-04-05T12:04:28.381Z,13.30
2023-04-05T12:08:10.211Z,13.30
2023-04-05T12:11:55.164Z,13.40
2023-04-05T12:15:43.150Z,13.50
2023-04-05T12:19:30.688Z,13.50
2023-04-05T12:23:12.677Z,13.40
2023-04-05T12:26:57.054Z,13.40
2023-04-05T12:30:54.731Z,13.50
2023-04-05T12:34:37.048Z,13.60
2023-04-05T12:38:18.816Z,13.70
2023-04-05T12:42:01.131Z,13.70
2023-04-05T12:45:44.407Z,13.70
2023-04-05T12:49:28.686Z,13.60
2023-04-05T12:53:18.245Z,13.50
2023-04-05T12:57:04.465Z,13.50
2023-04-05T13:00:46.696Z,13.40
2023-04-05T13:04:28.462Z,13.50
2023-04-05T13:08:10.342Z,13.50
2023-04-05T13:11:52.095Z,13.40
2023-04-05T13:15:34.213Z,13.50
2023-04-05T13:19:16.055Z,13.60
2023-04-05T13:22:58.000Z,13.60
2023-04-05T13:26:39.792Z,13.60
2023-04-05T13:30:21.650Z,13.50
2023-04-05T13:34:03.687Z,13.40
2023-04-05T13:37:45.488Z,13.20
2023-04-05T13:41:27.273Z,13.20
2023-04-05T13:45:09.796Z,13.10
2023-04-05T13:48:51.556Z,13.00
2023-04-05T13:52:33.620Z,13.00
2023-04-05T13:56:15.379Z,13.00
2023-04-05T13:59:57.249Z,13.00
2023-04-05T14:03:39.288Z,13.00
2023-04-05T14:07:22.694Z,13.00
2023-04-05T14:11:05.383Z,13.00
2023-04-05T14:14:47.170Z,12.90
2023-04-05T14:18:28.959Z,12.90
2023-04-05T14:22:10.941Z,12.80
2023-04-05T14:25:53.225Z,12.90
2023-04-05T14:29:35.000Z,12.90
2023-04-05T14:33:17.261Z,13.00
2023-04-05T14:37:00.851Z,13.00
2023-04-05T14:40:43.188Z,13.10
2023-04-05T14:44:26.884Z,13.00
2023-04-05T14:48:08.753Z,13.00
2023-04-05T14:51:50.723Z,12.90
2023-04-05T14:55:35.495Z,13.00
2023-04-05T14:59:17.358Z,13.10
2023-04-05T15:02:59.299Z,13.10
2023-04-05T15:06:42.249Z,13.20
2023-04-05T15:10:24.030Z,13.10
2023-04-05T15:14:08.484Z,13.10
2023-04-05T15:17:51.714Z,13.00
2023-04-05T15:21:33.777Z,12.90
2023-04-05T15:25:15.679Z,12.80
2023-04-05T15:28:57.405Z,12.70
2023-04-05T15:32:39.246Z,12.60
2023-04-05T15:36:21.303Z,12.60
2023-04-05T15:40:03.885Z,12.50
2023-04-05T15:43:46.799Z,12.50
2023-04-05T15:47:28.688Z,12.50
2023-04-05T15:51:12.034Z,12.50
2023-04-05T15:54:53.802Z,12.50
2023-04-05T15:58:37.045Z,12.50
2023-04-05T16:02:19.245Z,12.50
2023-04-05T16:06:01.016Z,12.60
2023-04-05T16:09:44.208Z,12.60
2023-04-05T16:13:26.164Z,12.70
2023-04-05T16:17:08.014Z,12.80
2023-04-05T16:20:50.592Z,12.90
2023-04-05T16:24:33.342Z,12.90
2023-04-05T16:28:15.147Z,13.00
2023-04-05T16:31:57.002Z,12.90
2023-04-05T16:35:38.860Z,12.90
2023-04-05T16:39:20.680Z,12.90
2023-04-05T16:43:02.419Z,12.80
2023-04-05T16:46:46.047Z,12.70
2023-04-05T16:50:27.914Z,12.60
2023-04-05T16:54:09.750Z,12.50
2023-04-05T16:57:53.999Z,12.50
2023-04-05T17:01:36.040Z,12.50
2023-04-05T17:05:17.967Z,12.50
2023-04-05T17:09:00.138Z,12.50
2023-04-05T17:12:42.230Z,12.40
2023-04-05T17:16:24.052Z,12.30
2023-04-05T17:20:06.586Z,12.30
2023-04-05T17:23:48.495Z,12.20
2023-04-05T17:27:30.361Z,12.20
2023-04-05T17:31:12.237Z,12.10
2023-04-05T17:34:54.332Z,12.00
2023-04-05T17:38:36.181Z,12.00
2023-04-05T17:42:18.524Z,12.00
2023-04-05T17:46:00.322Z,12.00
2023-04-05T17:49:42.099Z,12.00
2023-04-05T17:53:23.992Z,12.00
2023-04-05T17:57:06.585Z,12.00
2023-04-05T18:00:52.147Z,11.90
2023-04-05T18:04:34.052Z,11.90
2023-04-05T18:08:16.530Z,11.90
2023-04-05T18:11:58.854Z,11.90
2023-04-05T18:15:41.399Z,11.90
2023-04-05T18:19:23.216Z,11.90
2023-04-05T18:23:05.030Z,11.80
2023-04-05T18:26:47.106Z,11.80
2023-04-05T18:30:28.876Z,11.80
2023-04-05T18:34:10.657Z,11.80
2023-04-05T18:37:52.474Z,11.80
2023-04-05T18:41:34.233Z,11.80
2023-04-05T18:45:16.319Z,11.70
2023-04-05T18:48:58.116Z,11.60
2023-04-05T18:52:39.922Z,11.60
2023-04-05T18:56:21.695Z,11.60
2023-04-05T19:00:04.835Z,11.60
2023-04-05T19:03:47.820Z,11.50
2023-04-05T19:07:29.674Z,11.50
2023-04-05T19:11:13.714Z,11.50
2023-04-05T19:14:55.944Z,11.40
2023-04-05T19:18:37.730Z,11.40
2023-04-05T19:22:19.758Z,11.40
2023-04-05T19:26:01.543Z,11.40
2023-04-05T19:29:43.846Z,11.30
2023-04-05T19:33:25.627Z,11.30
2023-04-05T19:37:07.522Z,11.20
2023-04-05T19:40:49.353Z,11.20
2023-04-05T19:44:49.693Z,11.20
2023-04-05T19:48:44.333Z,11.10
2023-04-05T19:52:48.367Z,11.10
2023-04-05T19:56:32.265Z,11.10
2023-04-05T20:00:52.564Z,11.10
2023-04-05T20:04:38.902Z,11.10
2023-04-05T20:08:20.839Z,11.10
2023-04-05T20:12:04.059Z,11.10
2023-04-05T20:15:47.700Z,11.10
2023-04-05T20:19:31.333Z,11.10
2023-04-05T20:23:17.161Z,11.00
2023-04-05T20:26:59.041Z,11.10
2023-04-05T20:30:40.860Z,11.00
2023-04-05T20:34:31.324Z,11.00
2023-04-05T20:38:13.094Z,11.00
2023-04-05T20:41:58.443Z,11.00
2023-04-05T20:45:40.256Z,11.00
2023-04-05T20:49:23.006Z,11.00
2023-04-05T20:53:06.084Z,11.00
2023-04-05T20:56:47.965Z,11.00
2023-04-05T21:00:29.840Z,11.00
2023-04-05T21:04:11.654Z,11.00
2023-04-05T21:07:53.408Z,11.00
2023-04-05T21:11:35.333Z,11.00
2023-04-05T21:15:17.129Z,11.00
2023-04-05T21:18:59.152Z,11.10
2023-04-05T21:22:41.044Z,11.00
2023-04-05T21:26:22.806Z,11.10
2023-04-05T21:30:05.073Z,11.10
2023-04-05T21:33:46.903Z,11.10
2023-04-05T21:37:28.657Z,11.10
2023-04-05T21:41:10.742Z,11.20
2023-04-05T21:44:52.520Z,11.20
2023-04-05T21:48:34.316Z,11.10
2023-04-05T21:52:16.238Z,11.10
2023-04-05T21:55:58.008Z,11.10
2023-04-05T21:59:40.011Z,11.10
2023-04-05T22:03:21.838Z,11.10
2023-04-05T22:07:03.822Z,11.10
2023-04-05T22:10:45.617Z,11.20
2023-04-05T22:14:28.162Z,11.10
2023-04-05T22:18:10.120Z,11.10
2023-04-05T22:21:55.093Z,11.10
2023-04-05T22:25:36.854Z,11.10
2023-04-05T22:29:19.437Z,11.20
2023-04-05T22:33:02.005Z,11.20
2023-04-05T22:36:43.975Z,11.20
2023-04-05T22:40:27.439Z,11.20
2023-04-05T22:44:09.379Z,11.20
2023-04-05T22:47:51.344Z,11.20
2023-04-05T22:51:33.148Z,11.20
2023-04-05T22:55:15.039Z,11.20
2023-04-05T22:58:56.888Z,11.20
2023-04-05T23:02:38.708Z,11.20
2023-04-05T23:06:20.510Z,11.20
2023-04-05T23:10:02.373Z,11.20
2023-04-05T23:13:44.486Z,11.20
2023-04-05T23:17:26.598Z,11.20
2023-04-05T23:21:08.361Z,11.20
2023-04-05T23:24:50.180Z,11.20
2023-04-05T23:28:32.034Z,11.20
2023-04-05T23:32:13.792Z,11.20
2023-04-05T23:35:55.682Z,11.20
2023-04-05T23:39:37.485Z,11.20
2023-04-05T23:43:19.269Z,11.10
2023-04-05T23:47:01.202Z,11.20
2023-04-05T23:50:43.060Z,11.20
2023-04-05T23:54:24.903Z,11.20
2023-04-05T23:58:07.975Z,11.20
